Magnolia — WDB7135 — position and weather

sailwx.info

Track history (hours):
 
Tides and Currents Weather Stations Pressure Air Temp Water Temp Dewpoint Dewpoint Depression Visibility Wind Speed Wind Dir Waves Ship Positions

Magnolia

Owner: Magnolia Marine Transport Co, Vicksburg, MS. More information available from US FCC via Universal Licensing System and Coast Guard Vessel Documentation Center.

Last reported at 2016-Dec-05 20:33 UTC. Time now 2016-Dec-05 20:41 UTC.
Position N 32°23' W 090°53'.

Length 215 m.

MMSI: 366936960.

Date/timePositionNaut miles runAvg speedWind from/ knotsBaromVisibWave heightAir tempDewpointWater temp
2016-Dec-05 20:33N 32°23' W 090°53'1 1.1
2016-Dec-05 19:33N 32°22' W 090°53'4 3.5
2016-Dec-05 18:33N 32°19' W 090°54'1 1.4
2016-Dec-05 17:33N 32°18' W 090°55'4 4.0
2016-Dec-05 16:33N 32°15' W 090°59'4 4.3
2016-Dec-05 15:32N 32°10' W 090°60'4 3.7
2016-Dec-05 14:33N 32°07' W 091°02'4 3.9
2016-Dec-05 13:33N 32°07' W 091°07'5 4.5
2016-Dec-05 12:33N 32°03' W 091°03'  
2016-Nov-27 18:16N 32°00' W 091°05'6 7.2
2016-Nov-27 17:28N 32°06' W 091°06'5 5.0
2016-Nov-27 16:33N 32°08' W 091°01'9 8.6
2016-Nov-27 15:33N 32°16' W 090°58'6 6.0
2016-Nov-27 14:33N 32°20' W 090°54'3 2.8
2016-Nov-27 13:33N 32°23' W 090°53'1 0.6
2016-Nov-27 12:33N 32°23' W 090°54'0 0.0
2016-Nov-27 11:33N 32°23' W 090°54'0 0.0
2016-Nov-27 10:33N 32°23' W 090°54'0 0.0
2016-Nov-27 09:33N 32°23' W 090°54'0 0.0
2016-Nov-27 08:33N 32°23' W 090°54'0 0.0
2016-Nov-27 07:33N 32°23' W 090°54'0 0.1
2016-Nov-27 06:33N 32°23' W 090°54'0 0.0
2016-Nov-27 05:33N 32°23' W 090°54'0 0.0
2016-Nov-27 04:33N 32°23' W 090°54'0 0.0
2016-Nov-27 03:33N 32°23' W 090°54'0 0.0
2016-Nov-27 02:33N 32°23' W 090°54'0 0.0
2016-Nov-27 01:33N 32°23' W 090°54'0 0.0
2016-Nov-27 00:33N 32°23' W 090°54'0 0.0
2016-Nov-26 23:33N 32°23' W 090°54'0 0.0
2016-Nov-26 22:33N 32°23' W 090°54'0 0.0
2016-Nov-26 21:33N 32°23' W 090°54'0 0.0
2016-Nov-26 20:33N 32°23' W 090°54'0 0.0
2016-Nov-26 19:33N 32°23' W 090°54'0 0.2
2016-Nov-26 18:33N 32°23' W 090°54'0 0.0
2016-Nov-26 17:33N 32°23' W 090°54'0 0.0
2016-Nov-26 16:33N 32°23' W 090°54'0 0.0
2016-Nov-26 15:33N 32°23' W 090°54'0 0.0
2016-Nov-26 14:33N 32°23' W 090°54'0 0.0
2016-Nov-26 13:33N 32°23' W 090°54'0 0.0
2016-Nov-26 12:33N 32°23' W 090°54'0 0.0
2016-Nov-26 11:33N 32°23' W 090°54'0 0.0
2016-Nov-26 10:33N 32°23' W 090°54'0 0.0
2016-Nov-26 09:33N 32°23' W 090°54'0 0.0
2016-Nov-26 08:33N 32°23' W 090°54'0 0.0
2016-Nov-26 07:33N 32°23' W 090°54'0 0.0
2016-Nov-26 06:33N 32°23' W 090°54'0 0.0
2016-Nov-26 05:33N 32°23' W 090°54'0 0.1
2016-Nov-26 04:33N 32°23' W 090°54'2 1.9
2016-Nov-26 03:33N 32°21' W 090°53'3 3.5
2016-Nov-26 02:33N 32°18' W 090°55'4 4.1
2016-Nov-26 01:33N 32°15' W 090°58'4 4.2
2016-Nov-26 00:33N 32°11' W 090°60'4 4.2
2016-Nov-25 23:33N 32°07' W 091°01'4 3.7
2016-Nov-25 22:31N 32°08' W 091°05'  
Track history (hours):
 
Tides and Currents Weather Stations Pressure Air Temp Water Temp Dewpoint Dewpoint Depression Visibility Wind Speed Wind Dir Waves Ship Positions

Magnolia

Owner: Magnolia Marine Transport Co, Vicksburg, MS. More information available from US FCC via Universal Licensing System and Coast Guard Vessel Documentation Center.

Last reported at 2016-Dec-05 20:33 UTC. Time now 2016-Dec-05 20:41 UTC.
Position N 32°23' W 090°53'.

Length 215 m.

MMSI: 366936960.

Date/timePositionNaut miles runAvg speedWind from/ knotsBaromVisibWave heightAir tempDewpointWater temp
2016-Dec-05 20:33N 32°23' W 090°53'1 1.1
2016-Dec-05 19:33N 32°22' W 090°53'4 3.5
2016-Dec-05 18:33N 32°19' W 090°54'1 1.4
2016-Dec-05 17:33N 32°18' W 090°55'4 4.0
2016-Dec-05 16:33N 32°15' W 090°59'4 4.3
2016-Dec-05 15:32N 32°10' W 090°60'4 3.7
2016-Dec-05 14:33N 32°07' W 091°02'4 3.9
2016-Dec-05 13:33N 32°07' W 091°07'5 4.5
2016-Dec-05 12:33N 32°03' W 091°03'  
2016-Nov-27 18:16N 32°00' W 091°05'6 7.2
2016-Nov-27 17:28N 32°06' W 091°06'5 5.0
2016-Nov-27 16:33N 32°08' W 091°01'9 8.6
2016-Nov-27 15:33N 32°16' W 090°58'6 6.0
2016-Nov-27 14:33N 32°20' W 090°54'3 2.8
2016-Nov-27 13:33N 32°23' W 090°53'1 0.6
2016-Nov-27 12:33N 32°23' W 090°54'0 0.0
2016-Nov-27 11:33N 32°23' W 090°54'0 0.0
2016-Nov-27 10:33N 32°23' W 090°54'0 0.0
2016-Nov-27 09:33N 32°23' W 090°54'0 0.0
2016-Nov-27 08:33N 32°23' W 090°54'0 0.0
2016-Nov-27 07:33N 32°23' W 090°54'0 0.1
2016-Nov-27 06:33N 32°23' W 090°54'0 0.0
2016-Nov-27 05:33N 32°23' W 090°54'0 0.0
2016-Nov-27 04:33N 32°23' W 090°54'0 0.0
2016-Nov-27 03:33N 32°23' W 090°54'0 0.0
2016-Nov-27 02:33N 32°23' W 090°54'0 0.0
2016-Nov-27 01:33N 32°23' W 090°54'0 0.0
2016-Nov-27 00:33N 32°23' W 090°54'0 0.0
2016-Nov-26 23:33N 32°23' W 090°54'0 0.0
2016-Nov-26 22:33N 32°23' W 090°54'0 0.0
2016-Nov-26 21:33N 32°23' W 090°54'0 0.0
2016-Nov-26 20:33N 32°23' W 090°54'0 0.0
2016-Nov-26 19:33N 32°23' W 090°54'0 0.2
2016-Nov-26 18:33N 32°23' W 090°54'0 0.0
2016-Nov-26 17:33N 32°23' W 090°54'0 0.0
2016-Nov-26 16:33N 32°23' W 090°54'0 0.0
2016-Nov-26 15:33N 32°23' W 090°54'0 0.0
2016-Nov-26 14:33N 32°23' W 090°54'0 0.0
2016-Nov-26 13:33N 32°23' W 090°54'0 0.0
2016-Nov-26 12:33N 32°23' W 090°54'0 0.0
2016-Nov-26 11:33N 32°23' W 090°54'0 0.0
2016-Nov-26 10:33N 32°23' W 090°54'0 0.0
2016-Nov-26 09:33N 32°23' W 090°54'0 0.0
2016-Nov-26 08:33N 32°23' W 090°54'0 0.0
2016-Nov-26 07:33N 32°23' W 090°54'0 0.0
2016-Nov-26 06:33N 32°23' W 090°54'0 0.0
2016-Nov-26 05:33N 32°23' W 090°54'0 0.1
2016-Nov-26 04:33N 32°23' W 090°54'2 1.9
2016-Nov-26 03:33N 32°21' W 090°53'3 3.5
2016-Nov-26 02:33N 32°18' W 090°55'4 4.1
2016-Nov-26 01:33N 32°15' W 090°58'4 4.2
2016-Nov-26 00:33N 32°11' W 090°60'4 4.2
2016-Nov-25 23:33N 32°07' W 091°01'4 3.7
2016-Nov-25 22:31N 32°08' W 091°05'  

Dump ship's entire track history